createdAt,value
2023-02-09T00:02:16.514Z,13.37
2023-02-09T00:04:44.908Z,12.87
2023-02-09T00:07:12.922Z,11.83
2023-02-09T00:09:41.115Z,11.67
2023-02-09T00:12:28.317Z,10.30
2023-02-09T00:14:58.289Z,11.07
2023-02-09T00:17:26.609Z,10.70
2023-02-09T00:19:56.024Z,9.77
2023-02-09T00:22:24.263Z,8.93
2023-02-09T00:24:52.536Z,9.50
2023-02-09T00:27:21.081Z,8.77
2023-02-09T00:29:49.590Z,8.40
2023-02-09T00:32:19.623Z,8.47
2023-02-09T00:34:48.302Z,9.23
2023-02-09T00:37:16.934Z,10.63
2023-02-09T00:39:45.660Z,13.40
2023-02-09T00:42:15.023Z,14.27
2023-02-09T00:44:43.315Z,13.93
2023-02-09T00:47:11.628Z,14.83
2023-02-09T00:49:41.332Z,16.53
2023-02-09T00:52:10.120Z,15.93
2023-02-09T00:54:38.654Z,16.33
2023-02-09T00:57:06.950Z,16.93
2023-02-09T00:59:35.923Z,17.70
2023-02-09T01:02:04.816Z,17.60
2023-02-09T01:04:33.119Z,15.70
2023-02-09T01:07:02.757Z,17.30
2023-02-09T01:09:31.137Z,14.00
2023-02-09T01:11:59.281Z,15.27
2023-02-09T01:14:27.394Z,16.50
2023-02-09T01:16:55.672Z,16.13
2023-02-09T01:19:23.842Z,15.97
2023-02-09T01:21:52.111Z,16.07
2023-02-09T01:24:21.918Z,18.20
2023-02-09T01:26:50.300Z,17.73
2023-02-09T01:29:21.436Z,17.77
2023-02-09T01:31:50.051Z,16.57
2023-02-09T01:34:19.928Z,16.70
2023-02-09T01:36:48.496Z,16.00
2023-02-09T01:39:16.679Z,15.23
2023-02-09T01:41:46.518Z,18.20
2023-02-09T01:44:52.385Z,16.40
2023-02-09T01:47:21.411Z,15.00
2023-02-09T01:49:52.100Z,14.93
2023-02-09T01:52:24.918Z,14.07
2023-02-09T01:54:57.536Z,14.37
2023-02-09T01:57:32.659Z,15.17
2023-02-09T02:00:04.936Z,14.10
2023-02-09T02:02:33.455Z,13.93
2023-02-09T02:05:01.930Z,16.00
2023-02-09T02:07:37.164Z,14.50
2023-02-09T02:10:06.224Z,13.60
2023-02-09T02:12:37.210Z,14.27
2023-02-09T02:15:05.767Z,14.60
2023-02-09T02:17:48.393Z,14.43
2023-02-09T02:21:01.415Z,14.27
2023-02-09T02:23:37.535Z,13.87
2023-02-09T02:26:30.665Z,13.97
2023-02-09T02:29:41.650Z,14.63
2023-02-09T02:32:20.804Z,14.33
2023-02-09T02:34:55.768Z,14.37
2023-02-09T02:37:42.144Z,14.90
2023-02-09T02:40:23.023Z,14.43
2023-02-09T02:42:57.157Z,15.40
2023-02-09T02:45:35.722Z,14.53
2023-02-09T02:48:14.866Z,15.33
2023-02-09T02:50:49.002Z,14.57
2023-02-09T02:53:19.547Z,14.83
2023-02-09T02:55:50.713Z,16.03
2023-02-09T02:58:23.308Z,15.17
2023-02-09T03:00:53.781Z,15.63
2023-02-09T03:03:26.245Z,18.00
2023-02-09T03:05:55.327Z,17.63
2023-02-09T03:08:23.588Z,20.47
2023-02-09T03:10:52.378Z,19.83
2023-02-09T03:13:38.557Z,18.97
2023-02-09T03:16:20.036Z,18.03
2023-02-09T03:19:01.935Z,17.37
2023-02-09T03:21:42.979Z,18.97
2023-02-09T03:24:21.037Z,20.07
2023-02-09T03:26:53.001Z,17.67
2023-02-09T03:29:25.206Z,18.80
2023-02-09T03:31:53.480Z,19.63
2023-02-09T03:34:23.237Z,20.00
2023-02-09T03:36:55.444Z,19.13
2023-02-09T03:39:23.622Z,18.20
2023-02-09T03:41:51.797Z,20.53
2023-02-09T03:44:29.237Z,18.43
2023-02-09T03:46:59.568Z,18.83
2023-02-09T03:49:31.647Z,17.87
2023-02-09T03:52:00.819Z,19.43
2023-02-09T03:54:29.517Z,15.07
2023-02-09T03:56:58.235Z,17.10
2023-02-09T03:59:26.920Z,15.63
2023-02-09T04:01:56.488Z,16.07
2023-02-09T04:04:26.414Z,16.90
2023-02-09T04:06:56.216Z,17.73
2023-02-09T04:09:24.710Z,15.97
2023-02-09T04:11:53.229Z,16.97
2023-02-09T04:14:21.718Z,15.67
2023-02-09T04:16:50.272Z,15.33
2023-02-09T04:19:18.527Z,15.07
2023-02-09T04:21:46.898Z,14.03
2023-02-09T04:24:16.675Z,16.20
2023-02-09T04:26:44.822Z,15.73
2023-02-09T04:29:12.954Z,16.47
2023-02-09T04:31:41.151Z,15.80
2023-02-09T04:34:09.523Z,14.83
2023-02-09T04:36:37.826Z,14.73
2023-02-09T04:39:06.160Z,14.17
2023-02-09T04:41:35.780Z,14.17
2023-02-09T04:44:03.955Z,12.50
2023-02-09T04:46:31.997Z,12.27
2023-02-09T04:49:01.040Z,10.93
2023-02-09T04:51:29.202Z,11.23
2023-02-09T04:53:57.302Z,10.23
2023-02-09T04:56:25.311Z,10.90
2023-02-09T04:59:12.351Z,11.17
2023-02-09T05:01:40.616Z,11.37
2023-02-09T05:04:08.794Z,10.77
2023-02-09T05:06:36.857Z,11.27
2023-02-09T05:09:05.033Z,11.50
2023-02-09T05:11:33.230Z,11.00
2023-02-09T05:14:02.901Z,12.23
2023-02-09T05:16:31.154Z,11.60
2023-02-09T05:18:59.445Z,12.80
2023-02-09T05:21:27.679Z,12.57
2023-02-09T05:23:55.700Z,12.63
2023-02-09T05:26:23.961Z,12.63
2023-02-09T05:28:52.070Z,11.47
2023-02-09T05:31:21.699Z,12.00
2023-02-09T05:33:50.080Z,13.53
2023-02-09T05:36:18.253Z,13.40
2023-02-09T05:38:46.406Z,13.10
2023-02-09T05:41:36.317Z,12.73
2023-02-09T05:44:04.832Z,13.30
2023-02-09T05:46:34.381Z,13.37
2023-02-09T05:49:02.743Z,12.63
2023-02-09T05:51:30.868Z,13.23
2023-02-09T05:53:58.981Z,13.37
2023-02-09T05:56:27.293Z,13.37
2023-02-09T05:58:55.586Z,15.83
2023-02-09T06:01:23.807Z,13.93
2023-02-09T06:03:53.460Z,14.97
2023-02-09T06:06:21.643Z,16.23
2023-02-09T06:08:50.174Z,15.07
2023-02-09T06:11:19.357Z,17.80
2023-02-09T06:13:47.672Z,15.07
2023-02-09T06:16:15.861Z,16.30
2023-02-09T06:18:44.063Z,16.73
2023-02-09T06:21:13.844Z,17.47
2023-02-09T06:23:41.933Z,16.23
2023-02-09T06:26:11.736Z,16.57
2023-02-09T06:28:40.735Z,15.17
2023-02-09T06:31:09.213Z,14.90
2023-02-09T06:33:38.411Z,15.80
2023-02-09T06:36:08.955Z,15.27
2023-02-09T06:38:39.280Z,16.70
2023-02-09T06:41:08.010Z,16.00
2023-02-09T06:43:36.666Z,17.47
2023-02-09T06:46:08.236Z,17.77
2023-02-09T06:48:36.482Z,17.60
2023-02-09T06:51:09.211Z,16.47
2023-02-09T06:53:39.959Z,17.30
2023-02-09T06:56:09.397Z,16.57
2023-02-09T06:58:38.532Z,19.07
2023-02-09T07:01:08.693Z,17.10
2023-02-09T07:03:36.921Z,15.50
2023-02-09T07:06:06.912Z,15.70
2023-02-09T07:08:35.106Z,14.27
2023-02-09T07:11:05.947Z,13.90
2023-02-09T07:13:34.473Z,13.30
2023-02-09T07:16:04.148Z,14.17
2023-02-09T07:18:32.402Z,14.13
2023-02-09T07:21:02.165Z,13.90
2023-02-09T07:23:30.887Z,12.73
2023-02-09T07:26:05.233Z,11.93
2023-02-09T07:28:33.681Z,14.40
2023-02-09T07:31:05.749Z,11.60
2023-02-09T07:33:34.772Z,13.20
2023-02-09T07:36:05.914Z,12.43
2023-02-09T07:38:34.184Z,16.77
2023-02-09T07:41:02.921Z,11.57
2023-02-09T07:43:33.357Z,10.77
2023-02-09T07:46:02.233Z,10.70
2023-02-09T07:48:30.695Z,12.77
2023-02-09T07:50:59.270Z,13.50
2023-02-09T07:53:28.170Z,9.97
2023-02-09T07:55:56.715Z,10.37
2023-02-09T07:58:24.957Z,13.60
2023-02-09T08:00:54.580Z,11.20
2023-02-09T08:03:28.044Z,16.20
2023-02-09T08:06:01.821Z,11.40
2023-02-09T08:08:29.845Z,11.33
2023-02-09T08:11:00.810Z,10.70
2023-02-09T08:13:33.256Z,10.23
2023-02-09T08:16:07.270Z,10.27
2023-02-09T08:18:40.027Z,11.63
2023-02-09T08:21:12.155Z,11.13
2023-02-09T08:23:42.694Z,9.37
2023-02-09T08:26:14.417Z,12.57
2023-02-09T08:28:45.084Z,9.73
2023-02-09T08:31:18.479Z,10.83
2023-02-09T08:33:48.780Z,10.27
2023-02-09T08:36:18.288Z,11.80
2023-02-09T08:38:46.641Z,10.63
2023-02-09T08:41:20.508Z,10.40
2023-02-09T08:43:50.170Z,10.83
2023-02-09T08:46:20.822Z,11.97
2023-02-09T08:48:49.755Z,11.33
2023-02-09T08:51:18.352Z,11.20
2023-02-09T08:53:52.752Z,11.47
2023-02-09T08:56:21.825Z,11.10
2023-02-09T08:58:50.968Z,12.30
2023-02-09T09:01:20.672Z,10.17
2023-02-09T09:03:49.649Z,10.80
2023-02-09T09:06:17.791Z,10.03
2023-02-09T09:08:45.859Z,9.87
2023-02-09T09:11:14.990Z,8.53
2023-02-09T09:13:43.458Z,9.57
2023-02-09T09:16:17.046Z,9.27
2023-02-09T09:18:46.890Z,8.50
2023-02-09T09:21:16.386Z,6.73
2023-02-09T09:23:45.233Z,7.33
2023-02-09T09:26:13.333Z,8.17
2023-02-09T09:28:41.435Z,7.83
2023-02-09T09:31:11.072Z,7.97
2023-02-09T09:33:39.672Z,8.20
2023-02-09T09:36:10.160Z,7.20
2023-02-09T09:38:40.149Z,7.67
2023-02-09T09:41:20.344Z,8.13
2023-02-09T09:43:49.302Z,7.43
2023-02-09T09:46:20.455Z,7.63
2023-02-09T09:48:52.164Z,8.20
2023-02-09T09:51:27.742Z,7.67
2023-02-09T09:53:57.874Z,7.77
2023-02-09T09:56:27.257Z,8.60
2023-02-09T09:58:55.571Z,9.30
2023-02-09T10:01:24.340Z,8.23
2023-02-09T10:03:52.718Z,8.63
2023-02-09T10:06:23.955Z,8.93
2023-02-09T10:08:55.106Z,9.03
2023-02-09T10:11:30.653Z,9.43
2023-02-09T10:13:59.159Z,7.87
2023-02-09T10:16:30.556Z,8.23
2023-02-09T10:19:01.367Z,8.30
2023-02-09T10:21:32.988Z,7.70
2023-02-09T10:24:22.852Z,7.40
2023-02-09T10:27:09.275Z,7.30
2023-02-09T10:29:37.780Z,8.23
2023-02-09T10:32:14.946Z,8.33
2023-02-09T10:34:48.066Z,8.73
2023-02-09T10:37:22.090Z,9.13
2023-02-09T10:39:59.014Z,8.77
2023-02-09T10:42:31.574Z,8.23
2023-02-09T10:45:08.675Z,8.23
2023-02-09T10:47:36.768Z,8.30
2023-02-09T10:50:17.781Z,8.67
2023-02-09T10:53:01.080Z,7.40
2023-02-09T10:55:36.649Z,8.20
2023-02-09T10:58:07.812Z,7.30
2023-02-09T11:00:44.336Z,7.30
2023-02-09T11:03:18.902Z,7.90
2023-02-09T11:05:49.020Z,7.87
2023-02-09T11:08:23.952Z,7.83
2023-02-09T11:11:02.217Z,7.93
2023-02-09T11:13:32.435Z,7.87
2023-02-09T11:16:27.400Z,7.97
2023-02-09T11:19:01.596Z,7.27
2023-02-09T11:21:43.442Z,7.73
2023-02-09T11:24:26.406Z,7.40
2023-02-09T11:27:01.843Z,8.50
2023-02-09T11:29:36.416Z,7.63
2023-02-09T11:32:14.617Z,8.00
2023-02-09T11:35:01.472Z,6.93
2023-02-09T11:37:41.783Z,7.70
2023-02-09T11:40:24.057Z,8.07
2023-02-09T11:43:07.529Z,8.83
2023-02-09T11:45:40.870Z,7.10
2023-02-09T11:48:13.871Z,5.97
2023-02-09T11:50:57.329Z,6.30
2023-02-09T11:53:35.008Z,5.83
2023-02-09T11:56:07.198Z,6.07
2023-02-09T11:58:44.199Z,5.87
2023-02-09T12:01:27.493Z,5.57
2023-02-09T12:04:02.545Z,6.80
2023-02-09T12:06:37.046Z,7.80
2023-02-09T12:09:15.591Z,8.00
2023-02-09T12:11:53.959Z,10.37
2023-02-09T12:14:33.597Z,7.40
2023-02-09T12:17:09.425Z,7.57
2023-02-09T12:19:42.775Z,5.50
2023-02-09T12:22:46.327Z,5.70
2023-02-09T12:25:21.140Z,7.13
2023-02-09T12:28:17.376Z,6.27
2023-02-09T12:31:07.529Z,5.90
2023-02-09T12:33:38.471Z,5.60
2023-02-09T12:36:27.060Z,5.67
2023-02-09T12:39:24.928Z,5.47
2023-02-09T12:42:28.392Z,5.20
2023-02-09T12:44:59.779Z,6.30
2023-02-09T12:47:55.957Z,6.77
2023-02-09T12:50:33.248Z,5.93
2023-02-09T12:53:43.806Z,5.80
2023-02-09T12:56:35.465Z,6.17
2023-02-09T12:59:22.081Z,5.77
2023-02-09T13:02:16.077Z,5.80
2023-02-09T13:05:06.028Z,5.73
2023-02-09T13:07:47.029Z,6.13
2023-02-09T13:10:22.862Z,5.30
2023-02-09T13:12:58.144Z,5.87
2023-02-09T13:15:30.810Z,5.80
2023-02-09T13:18:14.239Z,6.30
2023-02-09T13:21:14.584Z,5.73
2023-02-09T13:23:56.732Z,5.33
2023-02-09T13:26:28.119Z,5.60
2023-02-09T13:29:20.502Z,4.53
2023-02-09T13:32:02.093Z,5.70
2023-02-09T13:34:37.054Z,5.57
2023-02-09T13:37:22.913Z,5.50
2023-02-09T13:39:58.077Z,5.60
2023-02-09T13:42:28.767Z,5.73
2023-02-09T13:44:59.367Z,5.07
2023-02-09T13:47:28.942Z,5.70
2023-02-09T13:50:00.558Z,5.30
2023-02-09T13:52:35.299Z,4.83
2023-02-09T13:55:13.692Z,5.87
2023-02-09T13:57:43.959Z,6.60
2023-02-09T14:00:22.877Z,5.97
2023-02-09T14:02:54.615Z,6.77
2023-02-09T14:05:32.267Z,5.60
2023-02-09T14:08:00.980Z,5.47
2023-02-09T14:10:30.833Z,5.83
2023-02-09T14:13:04.894Z,6.07
2023-02-09T14:15:55.479Z,6.40
2023-02-09T14:18:31.597Z,5.50
2023-02-09T14:21:04.991Z,5.77
2023-02-09T14:23:44.315Z,5.60
2023-02-09T14:26:26.190Z,5.80
2023-02-09T14:29:05.334Z,5.83
2023-02-09T14:31:37.798Z,5.90
2023-02-09T14:34:07.231Z,5.40
2023-02-09T14:36:38.261Z,6.80
2023-02-09T14:39:13.423Z,8.37
2023-02-09T14:41:41.972Z,7.83
2023-02-09T14:44:22.167Z,5.97
2023-02-09T14:46:53.469Z,5.97
2023-02-09T14:49:23.124Z,6.17
2023-02-09T14:52:05.853Z,6.13
2023-02-09T14:54:35.874Z,5.87
2023-02-09T14:57:04.804Z,5.53
2023-02-09T14:59:32.858Z,5.60
2023-02-09T15:02:01.510Z,6.63
2023-02-09T15:04:30.011Z,9.67
2023-02-09T15:07:03.142Z,7.70
2023-02-09T15:09:36.393Z,7.23
2023-02-09T15:12:08.082Z,7.80
2023-02-09T15:14:47.849Z,8.53
2023-02-09T15:17:19.534Z,10.10
2023-02-09T15:19:48.983Z,8.73
2023-02-09T15:22:20.277Z,7.97
2023-02-09T15:24:50.282Z,14.27
2023-02-09T15:27:37.607Z,8.20
2023-02-09T15:30:12.099Z,7.60
2023-02-09T15:32:40.353Z,6.60
2023-02-09T15:35:09.782Z,5.97
2023-02-09T15:37:41.194Z,6.80
2023-02-09T15:40:44.185Z,6.80
2023-02-09T15:43:31.836Z,6.70
2023-02-09T15:46:18.035Z,8.90
2023-02-09T15:48:46.601Z,6.97
2023-02-09T15:51:16.425Z,7.83
2023-02-09T15:53:48.173Z,6.77
2023-02-09T15:56:17.200Z,6.97
2023-02-09T15:58:48.399Z,7.50
2023-02-09T16:01:19.233Z,6.93
2023-02-09T16:03:48.149Z,7.37
2023-02-09T16:06:20.170Z,7.53
2023-02-09T16:08:52.688Z,6.83
2023-02-09T16:11:24.872Z,7.43
2023-02-09T16:13:52.986Z,7.90
2023-02-09T16:16:21.541Z,7.83
2023-02-09T16:18:50.277Z,10.48
2023-02-09T16:21:25.614Z,9.87
2023-02-09T16:23:57.862Z,8.00
2023-02-09T16:26:28.478Z,8.80
2023-02-09T16:28:57.344Z,8.07
2023-02-09T16:31:26.516Z,8.00
2023-02-09T16:33:55.396Z,8.93
2023-02-09T16:36:25.744Z,8.07
2023-02-09T16:38:55.484Z,12.80
2023-02-09T16:41:41.194Z,12.57
2023-02-09T16:44:17.727Z,10.67
2023-02-09T16:46:47.586Z,12.97
2023-02-09T16:49:31.568Z,13.27
2023-02-09T16:52:03.829Z,12.47
2023-02-09T16:54:39.260Z,11.23
2023-02-09T16:57:07.476Z,17.47
2023-02-09T16:59:37.954Z,12.73
2023-02-09T17:02:18.004Z,12.33
2023-02-09T17:04:48.771Z,15.03
2023-02-09T17:07:17.032Z,15.43
2023-02-09T17:09:47.182Z,15.73
2023-02-09T17:12:15.803Z,15.10
2023-02-09T17:14:44.333Z,12.00
2023-02-09T17:17:18.177Z,13.80
2023-02-09T17:19:48.132Z,12.37
2023-02-09T17:22:18.670Z,13.03
2023-02-09T17:24:49.324Z,10.90
2023-02-09T17:27:17.470Z,11.00
2023-02-09T17:29:45.533Z,10.67
2023-02-09T17:32:16.878Z,10.00
2023-02-09T17:34:45.156Z,10.50
2023-02-09T17:37:16.922Z,9.37
2023-02-09T17:39:45.423Z,8.67
2023-02-09T17:42:24.563Z,10.23
2023-02-09T17:45:02.498Z,10.67
2023-02-09T17:47:32.005Z,9.47
2023-02-09T17:50:00.746Z,9.33
2023-02-09T17:52:29.172Z,9.53
2023-02-09T17:54:58.168Z,9.70
2023-02-09T17:57:28.090Z,8.93
2023-02-09T17:59:58.213Z,8.17
2023-02-09T18:02:26.609Z,8.03
2023-02-09T18:04:55.525Z,8.17
2023-02-09T18:07:23.764Z,10.50
2023-02-09T18:09:54.572Z,10.33
2023-02-09T18:12:27.166Z,9.53
2023-02-09T18:14:57.248Z,8.20
2023-02-09T18:17:25.673Z,8.13
2023-02-09T18:19:56.910Z,9.60
2023-02-09T18:22:25.068Z,8.17
2023-02-09T18:24:54.488Z,8.23
2023-02-09T18:27:25.818Z,7.90
2023-02-09T18:29:56.528Z,7.70
2023-02-09T18:32:26.521Z,7.27
2023-02-09T18:34:55.418Z,7.10
2023-02-09T18:37:23.753Z,7.27
2023-02-09T18:39:52.339Z,7.97
2023-02-09T18:42:22.039Z,9.07
2023-02-09T18:44:50.511Z,7.50
2023-02-09T18:47:19.349Z,7.30
2023-02-09T18:49:49.660Z,7.97
2023-02-09T18:52:19.128Z,9.07
2023-02-09T18:54:47.932Z,9.13
2023-02-09T18:57:16.204Z,8.87
2023-02-09T18:59:47.628Z,9.20
2023-02-09T19:02:16.813Z,8.20
2023-02-09T19:04:53.121Z,7.30
2023-02-09T19:07:21.263Z,7.80
2023-02-09T19:09:50.474Z,7.67
2023-02-09T19:12:19.373Z,8.67
2023-02-09T19:14:49.403Z,8.37
2023-02-09T19:17:22.751Z,7.70
2023-02-09T19:19:53.340Z,8.80
2023-02-09T19:22:23.553Z,7.97
2023-02-09T19:24:53.431Z,8.63
2023-02-09T19:27:21.635Z,9.60
2023-02-09T19:29:55.017Z,10.03
2023-02-09T19:32:25.405Z,8.30
2023-02-09T19:34:56.047Z,9.47
2023-02-09T19:37:24.324Z,9.07
2023-02-09T19:40:04.945Z,8.67
2023-02-09T19:42:33.630Z,8.93
2023-02-09T19:45:03.243Z,9.53
2023-02-09T19:47:31.404Z,7.73
2023-02-09T19:50:02.507Z,8.77
2023-02-09T19:52:31.332Z,8.47
2023-02-09T19:55:02.916Z,10.13
2023-02-09T19:57:31.539Z,14.87
2023-02-09T19:59:59.860Z,10.37
2023-02-09T20:02:28.108Z,9.83
2023-02-09T20:04:56.920Z,12.17
2023-02-09T20:07:26.551Z,12.27
2023-02-09T20:09:57.365Z,8.27
2023-02-09T20:12:25.724Z,8.80
2023-02-09T20:14:54.990Z,9.13
2023-02-09T20:17:23.296Z,9.03
2023-02-09T20:19:52.976Z,10.37
2023-02-09T20:22:21.411Z,9.40
2023-02-09T20:24:50.992Z,9.63
2023-02-09T20:27:19.953Z,9.53
2023-02-09T20:30:07.446Z,9.40
2023-02-09T20:32:36.856Z,9.73
2023-02-09T20:35:06.556Z,9.00
2023-02-09T20:37:36.407Z,8.27
2023-02-09T20:40:11.168Z,8.97
2023-02-09T20:42:57.449Z,8.80
2023-02-09T20:45:43.461Z,8.47
2023-02-09T20:48:11.579Z,7.80
2023-02-09T20:50:39.648Z,9.00
2023-02-09T20:53:07.885Z,8.40
2023-02-09T20:55:38.087Z,8.60
2023-02-09T20:58:06.326Z,8.83
2023-02-09T21:00:34.568Z,9.27
2023-02-09T21:03:02.783Z,8.20
2023-02-09T21:05:31.065Z,9.80
2023-02-09T21:07:59.246Z,9.30
2023-02-09T21:10:27.319Z,9.43
2023-02-09T21:12:56.914Z,9.90
2023-02-09T21:15:24.904Z,10.00
2023-02-09T21:17:52.978Z,9.00
2023-02-09T21:20:21.648Z,9.50
2023-02-09T21:22:50.328Z,8.67
2023-02-09T21:25:19.548Z,9.03
2023-02-09T21:27:47.961Z,10.57
2023-02-09T21:30:17.918Z,9.50
2023-02-09T21:32:46.096Z,8.77
2023-02-09T21:35:14.326Z,10.60
2023-02-09T21:37:43.019Z,9.17
2023-02-09T21:40:12.722Z,9.60
2023-02-09T21:42:41.221Z,9.70
2023-02-09T21:45:10.313Z,9.77
2023-02-09T21:47:41.560Z,10.17
2023-02-09T21:50:12.985Z,8.73
2023-02-09T21:52:41.037Z,9.23
2023-02-09T21:55:09.846Z,9.17
2023-02-09T21:57:38.374Z,8.93
2023-02-09T22:00:09.076Z,8.80
2023-02-09T22:02:37.515Z,9.13
2023-02-09T22:05:08.540Z,8.70
2023-02-09T22:07:37.171Z,9.80
2023-02-09T22:10:06.407Z,9.63
2023-02-09T22:12:36.493Z,8.97
2023-02-09T22:15:04.957Z,9.87
2023-02-09T22:17:33.092Z,8.50
2023-02-09T22:20:01.218Z,8.47
2023-02-09T22:22:30.931Z,8.20
2023-02-09T22:24:59.199Z,9.03
2023-02-09T22:27:27.541Z,8.50
2023-02-09T22:29:55.533Z,8.80
2023-02-09T22:32:23.900Z,8.33
2023-02-09T22:34:52.027Z,8.53
2023-02-09T22:37:20.102Z,8.23
2023-02-09T22:39:50.088Z,8.40
2023-02-09T22:42:18.177Z,9.57
2023-02-09T22:44:46.641Z,8.40
2023-02-09T22:47:14.735Z,9.07
2023-02-09T22:49:46.145Z,8.60
2023-02-09T22:52:14.325Z,8.77
2023-02-09T22:54:42.452Z,9.00
2023-02-09T22:57:11.900Z,8.53
2023-02-09T22:59:40.098Z,8.43
2023-02-09T23:02:08.274Z,10.03
2023-02-09T23:04:36.215Z,9.40
2023-02-09T23:07:05.225Z,9.73
2023-02-09T23:09:33.487Z,9.07
2023-02-09T23:12:01.641Z,9.20
2023-02-09T23:14:31.205Z,8.83
2023-02-09T23:16:59.805Z,9.03
2023-02-09T23:19:28.161Z,10.57
2023-02-09T23:21:56.344Z,10.93
2023-02-09T23:24:25.276Z,10.17
2023-02-09T23:26:53.531Z,10.63
2023-02-09T23:29:22.462Z,10.20
2023-02-09T23:31:52.249Z,10.80
2023-02-09T23:34:21.876Z,10.80
2023-02-09T23:36:50.052Z,10.73
2023-02-09T23:39:20.359Z,11.67
2023-02-09T23:41:48.888Z,12.13
2023-02-09T23:44:16.892Z,13.00
2023-02-09T23:46:45.822Z,11.57
2023-02-09T23:49:15.321Z,12.00
2023-02-09T23:51:45.173Z,13.10
2023-02-09T23:54:13.236Z,12.43
2023-02-09T23:56:41.584Z,12.07
2023-02-09T23:59:12.757Z,11.83
